Time;durP1;ratioP1;P1;durP2;ratioP2;P2;SDS_P1;SDS_P2;PMS_P1;PMS_P2;Temp;Humidity;BMP_temperature;BMP_pressure;BME280_temperature;BME280_humidity;BME280_pressure;Samples;Min_cycle;Max_cycle;Signal;HPM_P1;HPM_P2
2023/04/01 00:01:24;;;;;;;3.97;1.13;;;13.70;86.20;;;;;;962826;146;27411;-83
2023/04/01 00:03:50;;;;;;;3.87;1.53;;;13.70;86.10;;;;;;962451;146;27298;-81
2023/04/01 00:06:17;;;;;;;4.55;1.00;;;13.70;85.90;;;;;;960859;146;27314;-81
2023/04/01 00:08:44;;;;;;;1.70;1.27;;;13.70;85.60;;;;;;963687;146;27399;-81
2023/04/01 00:11:10;;;;;;;2.47;1.13;;;13.70;85.50;;;;;;963196;146;27344;-81
2023/04/01 00:13:37;;;;;;;3.37;1.13;;;13.70;85.80;;;;;;962799;146;27425;-81
2023/04/01 00:16:04;;;;;;;1.80;1.23;;;13.70;85.60;;;;;;950789;148;27249;-81
2023/04/01 00:18:30;;;;;;;3.33;1.47;;;13.60;85.60;;;;;;950713;148;27408;-80
2023/04/01 00:20:56;;;;;;;2.22;0.80;;;13.60;85.30;;;;;;951199;148;27348;-82
2023/04/01 00:23:23;;;;;;;4.23;1.10;;;13.60;85.20;;;;;;951538;148;27348;-82
2023/04/01 00:25:50;;;;;;;1.87;1.03;;;13.60;85.20;;;;;;950581;148;27447;-81
2023/04/01 00:28:16;;;;;;;1.90;0.93;;;13.60;85.10;;;;;;951794;148;27336;-81
2023/04/01 00:30:43;;;;;;;5.93;1.03;;;13.60;85.20;;;;;;950973;148;27328;-81
2023/04/01 00:33:09;;;;;;;1.67;0.98;;;13.60;85.20;;;;;;946511;151;27346;-81
2023/04/01 00:35:36;;;;;;;2.65;1.27;;;13.60;84.90;;;;;;945050;151;27317;-81
2023/04/01 00:38:03;;;;;;;1.70;1.10;;;13.60;84.80;;;;;;947071;150;27279;-80
2023/04/01 00:40:35;;;;;;;1.87;1.30;;;13.60;84.90;;;;;;945492;151;27446;-81
2023/04/01 00:43:01;;;;;;;3.60;1.40;;;13.60;85.00;;;;;;947931;150;27454;-81
2023/04/01 00:45:28;;;;;;;3.80;1.13;;;13.60;84.80;;;;;;946359;151;27313;-81
2023/04/01 00:47:55;;;;;;;3.37;1.10;;;13.60;84.90;;;;;;960633;146;27411;-81
2023/04/01 00:50:21;;;;;;;2.33;1.23;;;13.60;84.90;;;;;;960493;146;27412;-81
2023/04/01 00:52:48;;;;;;;3.57;1.30;;;13.60;84.60;;;;;;949632;149;27342;-82
2023/04/01 00:55:14;;;;;;;1.80;1.03;;;13.60;84.20;;;;;;948959;149;27341;-81
2023/04/01 00:57:41;;;;;;;2.07;1.20;;;13.60;84.00;;;;;;950561;150;27299;-81
2023/04/01 01:00:09;;;;;;;5.77;1.13;;;13.60;84.00;;;;;;948637;149;27329;-80
2023/04/01 01:02:34;;;;;;;2.80;1.30;;;13.60;83.90;;;;;;948965;149;27355;-82
2023/04/01 01:05:01;;;;;;;4.80;1.07;;;13.60;83.90;;;;;;949621;150;27445;-81
2023/04/01 01:07:28;;;;;;;2.53;1.40;;;13.60;84.40;;;;;;944348;149;27480;-82
2023/04/01 01:10:09;;;;;;;2.02;1.22;;;13.60;83.70;;;;;;957972;146;27399;-81
2023/04/01 01:12:41;;;;;;;2.57;1.20;;;13.60;83.60;;;;;;957750;146;27388;-81
2023/04/01 01:15:07;;;;;;;3.03;1.23;;;13.60;83.30;;;;;;960820;146;27768;-81
2023/04/01 01:17:52;;;;;;;1.57;0.90;;;13.60;83.30;;;;;;949391;149;27294;-81
2023/04/01 01:20:43;;;;;;;2.00;0.80;;;13.60;83.50;;;;;;950034;149;27351;-81
2023/04/01 01:23:37;;;;;;;3.83;1.40;;;13.60;83.50;;;;;;945005;150;27384;-82
2023/04/01 01:26:09;;;;;;;2.83;1.20;;;13.60;83.20;;;;;;944993;150;27416;-81
2023/04/01 01:29:13;;;;;;;1.07;0.90;;;13.60;83.00;;;;;;936737;151;27391;-83
2023/04/01 01:32:04;;;;;;;1.57;1.07;;;13.60;83.20;;;;;;937978;151;27335;-81
2023/04/01 01:34:37;;;;;;;1.17;0.90;;;13.60;82.80;;;;;;936673;150;27352;-82
2023/04/01 01:37:06;;;;;;;1.47;1.00;;;13.60;82.80;;;;;;939121;151;27332;-80
2023/04/01 01:39:33;;;;;;;1.73;1.20;;;13.50;82.50;;;;;;937234;151;27394;-81
2023/04/01 01:41:59;;;;;;;2.83;1.20;;;13.50;82.70;;;;;;938239;151;27285;-81
2023/04/01 01:44:26;;;;;;;1.97;1.10;;;13.50;82.70;;;;;;938871;151;27352;-81
2023/04/01 01:46:52;;;;;;;4.17;1.00;;;13.60;82.80;;;;;;938802;151;27404;-81
2023/04/01 01:49:19;;;;;;;1.52;1.02;;;13.60;82.90;;;;;;937817;149;27320;-80
2023/04/01 01:51:46;;;;;;;2.20;1.17;;;13.60;82.70;;;;;;938867;151;27269;-82
2023/04/01 01:54:12;;;;;;;2.50;1.40;;;13.60;82.40;;;;;;938625;151;27296;-81
2023/04/01 01:56:39;;;;;;;2.72;1.00;;;13.60;82.50;;;;;;937604;151;27360;-80
2023/04/01 01:59:05;;;;;;;3.42;0.93;;;13.60;82.50;;;;;;939515;151;27388;-81
2023/04/01 02:01:32;;;;;;;2.37;1.10;;;13.60;82.50;;;;;;938601;149;27356;-82
2023/04/01 02:03:59;;;;;;;2.65;1.17;;;13.60;82.30;;;;;;937887;151;27322;-80
2023/04/01 02:06:25;;;;;;;2.77;1.37;;;13.60;82.20;;;;;;938652;151;27461;-81
2023/04/01 02:08:52;;;;;;;1.95;1.00;;;13.70;82.30;;;;;;938434;151;27495;-81
2023/04/01 02:11:19;;;;;;;3.13;1.20;;;13.60;81.90;;;;;;939879;149;27341;-81
2023/04/01 02:13:58;;;;;;;1.57;0.90;;;13.70;81.50;;;;;;938201;149;27305;-80
2023/04/01 02:16:29;;;;;;;1.20;0.77;;;13.70;81.80;;;;;;930376;151;27328;-78
2023/04/01 02:18:56;;;;;;;1.90;0.90;;;13.70;82.00;;;;;;937875;151;27451;-79
2023/04/01 02:21:22;;;;;;;2.50;1.07;;;13.70;81.70;;;;;;938572;151;27467;-78
2023/04/01 02:23:49;;;;;;;4.42;1.17;;;13.70;81.60;;;;;;937776;151;27305;-78
2023/04/01 02:26:15;;;;;;;3.62;1.15;;;13.70;81.00;;;;;;939670;150;27778;-78
2023/04/01 02:28:42;;;;;;;2.47;1.57;;;13.70;81.10;;;;;;938633;150;27358;-78
2023/04/01 02:31:09;;;;;;;3.17;0.90;;;13.70;81.60;;;;;;940305;149;27370;-78
2023/04/01 02:33:35;;;;;;;0.87;0.80;;;13.70;81.40;;;;;;937490;151;27285;-78
2023/04/01 02:36:02;;;;;;;1.17;0.77;;;13.70;80.70;;;;;;942949;148;27286;-78
2023/04/01 02:38:28;;;;;;;2.97;1.17;;;13.70;81.30;;;;;;940104;149;27349;-78
2023/04/01 02:40:58;;;;;;;3.27;1.00;;;13.70;81.30;;;;;;941677;149;27810;-78
2023/04/01 02:43:24;;;;;;;2.43;0.83;;;13.70;80.90;;;;;;939464;149;27346;-78
2023/04/01 02:45:51;;;;;;;3.80;1.20;;;13.70;81.00;;;;;;940311;149;27293;-78
2023/04/01 02:48:18;;;;;;;1.47;0.90;;;13.70;80.80;;;;;;940345;149;27431;-78
2023/04/01 02:50:44;;;;;;;1.87;1.47;;;13.70;80.70;;;;;;939811;149;27447;-81
2023/04/01 02:53:11;;;;;;;2.67;1.30;;;13.60;80.80;;;;;;940523;149;27314;-82
2023/04/01 02:55:37;;;;;;;2.23;1.00;;;13.60;80.70;;;;;;939390;149;27361;-80
2023/04/01 02:58:04;;;;;;;2.50;1.10;;;13.60;81.00;;;;;;941802;149;27278;-81
2023/04/01 03:00:31;;;;;;;2.20;1.30;;;13.60;80.80;;;;;;943945;148;27438;-81
2023/04/01 03:02:57;;;;;;;3.00;1.12;;;13.60;81.10;;;;;;943993;148;27861;-81
2023/04/01 03:05:24;;;;;;;1.83;1.07;;;13.60;81.00;;;;;;947387;147;27364;-81
2023/04/01 03:07:50;;;;;;;3.20;1.00;;;13.60;81.00;;;;;;943098;149;27309;-80
2023/04/01 03:10:17;;;;;;;5.00;1.87;;;13.60;81.00;;;;;;943984;149;27380;-81
2023/04/01 03:12:44;;;;;;;1.15;0.98;;;13.60;81.10;;;;;;943641;149;27419;-81
2023/04/01 03:15:10;;;;;;;2.47;0.80;;;13.60;81.10;;;;;;942828;149;27403;-81
2023/04/01 03:17:37;;;;;;;1.80;1.10;;;13.60;81.20;;;;;;943663;149;27390;-81
2023/04/01 03:20:04;;;;;;;2.77;1.00;;;13.60;81.30;;;;;;943276;149;27414;-81
2023/04/01 03:22:30;;;;;;;2.10;1.40;;;13.60;81.20;;;;;;943777;149;27365;-82
2023/04/01 03:24:56;;;;;;;1.60;0.90;;;13.60;81.20;;;;;;943307;149;27454;-80
2023/04/01 03:27:23;;;;;;;2.10;0.90;;;13.60;81.30;;;;;;943905;149;27455;-82
2023/04/01 03:29:50;;;;;;;2.50;1.20;;;13.60;81.10;;;;;;943832;149;27434;-82
2023/04/01 03:32:16;;;;;;;1.63;1.37;;;13.60;81.30;;;;;;957209;147;27315;-81
2023/04/01 03:34:43;;;;;;;1.97;0.93;;;13.60;81.30;;;;;;946486;151;27354;-81
2023/04/01 03:37:09;;;;;;;3.07;0.90;;;13.60;81.10;;;;;;946317;151;27423;-82
2023/04/01 03:39:36;;;;;;;1.10;0.80;;;13.50;81.20;;;;;;957549;147;27331;-81
2023/04/01 03:42:03;;;;;;;2.40;1.17;;;13.60;81.00;;;;;;948775;149;27351;-82
2023/04/01 03:44:32;;;;;;;4.10;1.23;;;13.60;81.10;;;;;;957915;147;27424;-80
2023/04/01 03:46:59;;;;;;;3.52;1.20;;;13.60;81.30;;;;;;957983;147;27426;-81
2023/04/01 03:49:25;;;;;;;2.33;0.80;;;13.60;81.10;;;;;;957910;147;27388;-81
2023/04/01 03:51:52;;;;;;;1.02;0.70;;;13.60;81.20;;;;;;958708;147;27274;-81
2023/04/01 03:54:19;;;;;;;3.55;1.35;;;13.60;81.30;;;;;;957502;147;27469;-81
2023/04/01 03:56:45;;;;;;;1.67;0.83;;;13.60;81.10;;;;;;957560;147;27438;-81
2023/04/01 03:59:11;;;;;;;1.47;1.27;;;13.60;81.00;;;;;;957541;147;27367;-81
2023/04/01 04:01:38;;;;;;;1.13;0.87;;;13.60;81.10;;;;;;955933;147;27779;-81
2023/04/01 04:04:05;;;;;;;3.00;1.13;;;13.60;81.10;;;;;;957072;147;27440;-81
2023/04/01 04:06:31;;;;;;;1.10;0.97;;;13.60;81.30;;;;;;957149;147;27397;-81
2023/04/01 04:08:58;;;;;;;2.95;1.15;;;13.60;81.70;;;;;;946818;149;27382;-81
2023/04/01 04:11:25;;;;;;;2.67;1.00;;;13.60;81.90;;;;;;957151;147;27905;-81
2023/04/01 04:13:52;;;;;;;2.50;0.90;;;13.50;81.90;;;;;;945986;148;27376;-81
2023/04/01 04:16:18;;;;;;;1.90;1.07;;;13.50;82.00;;;;;;945956;150;27421;-80
2023/04/01 04:18:44;;;;;;;3.30;0.87;;;13.50;82.00;;;;;;959693;147;27351;-80
2023/04/01 04:21:11;;;;;;;2.33;1.07;;;13.50;81.90;;;;;;944104;151;27436;-80
2023/04/01 04:23:37;;;;;;;1.90;1.07;;;13.50;81.90;;;;;;943713;151;27410;-81
2023/04/01 04:26:04;;;;;;;2.70;1.10;;;13.40;81.90;;;;;;943322;151;27345;-82
2023/04/01 04:28:31;;;;;;;1.53;0.93;;;13.40;82.00;;;;;;944122;150;27390;-81
2023/04/01 04:30:57;;;;;;;3.23;0.97;;;13.40;82.10;;;;;;946631;150;27349;-81
2023/04/01 04:33:24;;;;;;;3.03;1.20;;;13.40;82.10;;;;;;945950;151;27343;-80
2023/04/01 04:35:50;;;;;;;2.60;1.00;;;13.40;82.30;;;;;;960255;146;27318;-82
2023/04/01 04:38:17;;;;;;;1.13;0.80;;;13.40;82.30;;;;;;960029;146;27404;-81
2023/04/01 04:40:43;;;;;;;2.27;1.10;;;13.40;82.30;;;;;;947611;149;27407;-81
2023/04/01 04:43:10;;;;;;;2.53;1.37;;;13.40;82.30;;;;;;949547;149;27346;-81
2023/04/01 04:45:37;;;;;;;3.13;1.00;;;13.40;82.30;;;;;;946340;149;27288;-81
2023/04/01 04:48:03;;;;;;;1.63;0.80;;;13.40;82.00;;;;;;947463;151;27280;-81
2023/04/01 04:50:30;;;;;;;3.17;1.00;;;13.40;82.00;;;;;;946796;150;27311;-81
2023/04/01 04:52:56;;;;;;;1.27;0.73;;;13.40;82.00;;;;;;946030;150;27339;-81
2023/04/01 04:55:23;;;;;;;1.23;0.63;;;13.40;82.00;;;;;;945341;150;27451;-81
2023/04/01 04:57:50;;;;;;;2.70;1.13;;;13.40;82.00;;;;;;947361;151;27401;-82
2023/04/01 05:00:16;;;;;;;1.23;1.00;;;13.40;82.10;;;;;;946193;150;27435;-81
2023/04/01 05:02:43;;;;;;;2.97;1.27;;;13.40;82.00;;;;;;961108;146;27355;-82
2023/04/01 05:05:10;;;;;;;1.97;0.83;;;13.40;82.00;;;;;;960524;146;27381;-81
2023/04/01 05:07:36;;;;;;;2.40;1.07;;;13.40;81.90;;;;;;941874;149;27350;-81
2023/04/01 05:10:02;;;;;;;2.03;1.00;;;13.40;81.80;;;;;;945017;149;27395;-80
2023/04/01 05:12:29;;;;;;;2.23;1.00;;;13.40;81.60;;;;;;950380;148;27712;-81
2023/04/01 05:14:56;;;;;;;2.50;0.80;;;13.50;81.70;;;;;;960799;146;27450;-80
2023/04/01 05:17:22;;;;;;;1.63;0.90;;;13.50;81.70;;;;;;942917;149;27680;-81
2023/04/01 05:19:49;;;;;;;1.13;0.77;;;13.50;82.00;;;;;;949223;150;27329;-81
2023/04/01 05:22:15;;;;;;;2.53;0.83;;;13.50;82.20;;;;;;944496;149;27442;-81
2023/04/01 05:24:42;;;;;;;2.60;1.10;;;13.50;82.30;;;;;;958923;146;27380;-81
2023/04/01 05:27:09;;;;;;;2.00;1.00;;;13.50;82.40;;;;;;960638;146;27354;-81
2023/04/01 05:29:35;;;;;;;3.77;1.10;;;13.50;82.50;;;;;;961445;146;27343;-81
2023/04/01 05:32:02;;;;;;;1.20;0.93;;;13.50;82.50;;;;;;950708;149;27400;-81
2023/04/01 05:34:28;;;;;;;2.47;1.00;;;13.50;82.80;;;;;;949660;150;27305;-81
2023/04/01 05:36:55;;;;;;;2.77;0.77;;;13.40;83.00;;;;;;950642;149;27338;-81
2023/04/01 05:39:22;;;;;;;1.40;0.85;;;13.40;83.30;;;;;;948162;149;27486;-81
2023/04/01 05:41:48;;;;;;;2.10;1.03;;;13.40;83.40;;;;;;946876;151;27311;-80
2023/04/01 05:44:15;;;;;;;1.43;0.73;;;13.40;83.70;;;;;;947060;150;27441;-80
2023/04/01 05:46:41;;;;;;;1.42;0.80;;;13.40;84.30;;;;;;960822;146;27318;-80
2023/04/01 05:49:08;;;;;;;2.50;1.43;;;13.40;84.30;;;;;;960856;146;27454;-81
2023/04/01 05:51:34;;;;;;;1.00;0.80;;;13.40;85.20;;;;;;959532;146;27330;-80
2023/04/01 05:54:01;;;;;;;2.37;1.10;;;13.30;85.00;;;;;;940268;148;27457;-81
2023/04/01 05:56:28;;;;;;;1.83;0.83;;;13.40;86.20;;;;;;948656;150;27299;-81
2023/04/01 05:58:54;;;;;;;1.57;0.90;;;13.30;85.50;;;;;;948002;149;27436;-80
2023/04/01 06:01:21;;;;;;;2.10;0.90;;;13.30;85.90;;;;;;945395;151;27443;-80
2023/04/01 06:03:47;;;;;;;2.17;0.90;;;13.30;86.00;;;;;;945674;151;27329;-81
2023/04/01 06:06:15;;;;;;;1.47;0.70;;;13.30;86.20;;;;;;960996;146;27400;-82
2023/04/01 06:08:41;;;;;;;1.70;1.03;;;13.30;86.50;;;;;;960647;146;27347;-83
2023/04/01 06:11:16;;;;;;;2.47;1.00;;;13.30;86.40;;;;;;948715;149;27370;-83
2023/04/01 06:13:42;;;;;;;2.17;1.00;;;13.30;86.50;;;;;;937479;151;27477;-82
2023/04/01 06:16:30;;;;;;;1.70;0.90;;;13.40;86.80;;;;;;946054;150;27370;-83
2023/04/01 06:19:14;;;;;;;2.30;0.80;;;13.40;86.70;;;;;;946954;150;27342;-83
2023/04/01 06:22:09;;;;;;;0.60;0.60;;;13.40;86.80;;;;;;946273;150;27356;-83
2023/04/01 06:24:41;;;;;;;1.02;1.00;;;13.40;86.90;;;;;;946662;151;27459;-84
2023/04/01 06:27:35;;;;;;;1.03;0.70;;;13.30;87.10;;;;;;945988;150;27307;-81
2023/04/01 06:30:32;;;;;;;1.70;0.73;;;13.30;87.50;;;;;;947150;151;27344;-83
2023/04/01 06:33:17;;;;;;;1.13;0.70;;;13.30;87.60;;;;;;946970;151;27294;-82
2023/04/01 06:35:53;;;;;;;1.53;0.83;;;13.30;87.90;;;;;;945834;150;27299;-83
2023/04/01 06:38:53;;;;;;;3.17;1.10;;;13.30;87.90;;;;;;944704;151;27320;-82
2023/04/01 06:41:44;;;;;;;1.40;0.90;;;13.30;88.10;;;;;;945279;150;27262;-83
2023/04/01 06:44:18;;;;;;;1.20;0.80;;;13.30;87.90;;;;;;945270;151;27339;-82
2023/04/01 06:46:46;;;;;;;1.50;0.87;;;13.30;88.10;;;;;;944843;151;27389;-83
2023/04/01 06:49:31;;;;;;;2.37;0.67;;;13.30;88.50;;;;;;945331;151;27393;-83
2023/04/01 06:52:00;;;;;;;0.60;0.43;;;13.30;88.50;;;;;;946359;151;27287;-75
2023/04/01 06:54:32;;;;;;;1.80;0.70;;;13.40;88.70;;;;;;945416;150;27420;-74
2023/04/01 06:56:59;;;;;;;1.32;0.82;;;13.40;88.90;;;;;;941996;151;27731;-74
2023/04/01 06:59:26;;;;;;;2.03;0.80;;;13.40;88.90;;;;;;944899;150;27272;-75
2023/04/01 07:01:52;;;;;;;0.97;0.60;;;13.40;89.30;;;;;;944641;151;27278;-74
2023/04/01 07:04:31;;;;;;;2.00;0.93;;;13.40;89.20;;;;;;945385;151;27327;-74
2023/04/01 07:07:00;;;;;;;1.17;0.68;;;13.40;89.30;;;;;;946170;150;27484;-74
2023/04/01 07:09:27;;;;;;;1.72;0.70;;;13.40;89.50;;;;;;945921;151;27500;-75
2023/04/01 07:11:54;;;;;;;2.10;1.00;;;13.40;89.70;;;;;;939497;151;27323;-74
2023/04/01 07:14:26;;;;;;;2.37;1.33;;;13.50;90.00;;;;;;945816;151;27358;-74
2023/04/01 07:16:59;;;;;;;2.17;1.80;;;13.50;89.90;;;;;;946409;150;27746;-74
2023/04/01 07:19:31;;;;;;;2.60;2.20;;;13.50;89.80;;;;;;933745;151;27354;-75
2023/04/01 07:22:35;;;;;;;6.50;2.50;;;13.60;90.00;;;;;;947152;151;27390;-75
2023/04/01 07:25:16;;;;;;;1.63;1.20;;;13.60;90.00;;;;;;946751;150;27347;-75
2023/04/01 07:27:43;;;;;;;1.83;1.00;;;13.60;89.60;;;;;;946673;151;27314;-75
2023/04/01 07:30:16;;;;;;;4.40;2.37;;;13.70;90.00;;;;;;958378;146;27363;-74
2023/04/01 07:32:51;;;;;;;5.57;3.70;;;13.70;89.80;;;;;;943540;149;27480;-74
2023/04/01 07:35:29;;;;;;;4.62;3.65;;;13.70;89.60;;;;;;958158;146;27349;-75
2023/04/01 07:38:08;;;;;;;5.00;3.37;;;13.70;89.60;;;;;;959310;146;27346;-75
2023/04/01 07:40:55;;;;;;;10.17;7.90;;;13.80;89.60;;;;;;961883;146;27354;-75
2023/04/01 07:43:37;;;;;;;8.80;6.20;;;13.80;89.60;;;;;;943350;149;28034;-75
2023/04/01 07:46:04;;;;;;;9.07;5.70;;;13.80;89.60;;;;;;957827;146;27290;-75
2023/04/01 07:48:39;;;;;;;5.15;3.83;;;13.80;89.80;;;;;;946897;151;27383;-75
2023/04/01 07:51:18;;;;;;;1.50;1.40;;;13.90;90.00;;;;;;945393;148;27352;-75
2023/04/01 07:53:50;;;;;;;0.93;0.93;;;13.90;90.00;;;;;;943958;149;27876;-75
2023/04/01 07:56:19;;;;;;;1.53;1.07;;;13.90;90.00;;;;;;949989;149;27383;-75
2023/04/01 07:58:51;;;;;;;2.60;0.93;;;14.00;90.10;;;;;;902018;150;27295;-75
2023/04/01 08:01:24;;;;;;;1.40;0.70;;;14.00;90.00;;;;;;948588;149;27302;-75
2023/04/01 08:03:57;;;;;;;0.82;0.72;;;14.00;90.00;;;;;;959015;146;27354;-75
2023/04/01 08:06:23;;;;;;;1.37;0.88;;;14.10;90.20;;;;;;948729;150;27376;-75
2023/04/01 08:09:01;;;;;;;1.07;0.70;;;14.10;90.40;;;;;;949716;149;27751;-75
2023/04/01 08:11:53;;;;;;;2.05;0.70;;;14.20;90.30;;;;;;950519;148;27401;-75
2023/04/01 08:14:28;;;;;;;3.12;0.90;;;14.20;90.30;;;;;;950387;148;27517;-75
2023/04/01 08:17:06;;;;;;;0.97;0.70;;;14.30;90.20;;;;;;949996;148;27388;-75
2023/04/01 08:19:50;;;;;;;0.98;0.80;;;14.30;90.20;;;;;;949958;148;27332;-75
2023/04/01 08:22:14;;;;;;;1.07;0.70;;;14.30;90.20;;;;;;950891;148;27443;-75
2023/04/01 08:24:44;;;;;;;2.10;1.00;;;14.30;90.20;;;;;;941962;149;27364;-74
2023/04/01 08:27:10;;;;;;;0.53;0.53;;;14.40;90.50;;;;;;942101;149;27292;-74
2023/04/01 08:29:40;;;;;;;0.72;0.65;;;14.40;90.50;;;;;;934815;149;27429;-75
2023/04/01 08:32:06;;;;;;;1.00;0.90;;;14.50;90.50;;;;;;960216;146;28027;-74
2023/04/01 08:34:33;;;;;;;3.27;1.30;;;14.50;90.50;;;;;;960055;146;27354;-75
2023/04/01 08:37:00;;;;;;;1.20;1.10;;;14.50;90.40;;;;;;958018;146;27354;-75
2023/04/01 08:39:45;;;;;;;2.52;0.93;;;14.60;90.40;;;;;;941419;149;27394;-75
2023/04/01 08:42:17;;;;;;;0.50;0.50;;;14.60;90.30;;;;;;947745;149;27334;-75
2023/04/01 08:45:14;;;;;;;1.45;0.75;;;14.60;90.20;;;;;;948199;150;27658;-75
2023/04/01 08:47:40;;;;;;;0.80;0.80;;;14.60;90.20;;;;;;949577;150;27331;-75
2023/04/01 08:50:25;;;;;;;0.90;0.70;;;14.60;89.90;;;;;;948484;150;27341;-75
2023/04/01 08:53:13;;;;;;;0.60;0.60;;;14.60;89.90;;;;;;948658;150;27921;-82
2023/04/01 08:55:58;;;;;;;0.87;0.77;;;14.60;89.90;;;;;;946372;151;27319;-82
2023/04/01 08:58:27;;;;;;;1.32;0.80;;;14.60;90.10;;;;;;961282;146;27307;-80
2023/04/01 09:00:53;;;;;;;0.82;0.82;;;14.60;90.30;;;;;;948466;149;27423;-81
2023/04/01 09:03:29;;;;;;;1.57;1.42;;;14.60;90.40;;;;;;945678;151;27384;-81
2023/04/01 09:05:55;;;;;;;1.15;1.02;;;14.60;90.70;;;;;;945424;151;27257;-81
2023/04/01 09:08:50;;;;;;;1.02;0.93;;;14.60;90.80;;;;;;945067;150;27406;-81
2023/04/01 09:11:25;;;;;;;0.90;0.90;;;14.70;91.10;;;;;;960582;146;27407;-81
2023/04/01 09:13:57;;;;;;;2.30;0.88;;;14.60;91.10;;;;;;955692;146;27413;-81
2023/04/01 09:16:30;;;;;;;1.50;1.10;;;14.70;91.20;;;;;;947994;150;27494;-81
2023/04/01 09:19:18;;;;;;;1.47;0.80;;;14.70;91.40;;;;;;959991;146;27343;-81
2023/04/01 09:22:02;;;;;;;0.90;0.60;;;14.60;91.60;;;;;;948336;150;27313;-81
2023/04/01 09:24:31;;;;;;;0.50;0.33;;;14.60;91.60;;;;;;948411;150;28092;-81
2023/04/01 09:27:00;;;;;;;0.80;0.50;;;14.60;91.90;;;;;;959759;146;27295;-81
2023/04/01 09:29:51;;;;;;;0.55;0.45;;;14.60;92.00;;;;;;939332;149;27365;-80
2023/04/01 09:32:40;;;;;;;1.05;0.65;;;14.60;92.20;;;;;;947616;146;27395;-81
2023/04/01 09:35:21;;;;;;;1.05;0.57;;;14.60;92.20;;;;;;943367;148;27364;-80
2023/04/01 09:37:54;;;;;;;0.82;0.53;;;14.60;92.50;;;;;;944035;148;27463;-81
2023/04/01 09:40:29;;;;;;;1.10;0.62;;;14.60;92.70;;;;;;941285;149;27345;-81
2023/04/01 09:43:05;;;;;;;0.65;0.50;;;14.60;92.80;;;;;;939574;149;27329;-81
2023/04/01 09:45:31;;;;;;;0.93;0.93;;;14.60;93.00;;;;;;942670;148;27371;-80
2023/04/01 09:48:10;;;;;;;1.05;1.02;;;14.60;93.00;;;;;;941877;148;27367;-80
2023/04/01 09:50:48;;;;;;;1.12;1.05;;;14.60;93.30;;;;;;942802;148;27700;-81
2023/04/01 09:53:23;;;;;;;1.17;0.93;;;14.70;93.40;;;;;;918882;149;27747;-81
2023/04/01 09:55:53;;;;;;;1.20;1.10;;;14.70;93.50;;;;;;940592;149;27446;-81
2023/04/01 09:58:20;;;;;;;0.53;0.45;;;14.70;93.50;;;;;;939946;149;27353;-81
2023/04/01 10:01:17;;;;;;;0.40;0.40;;;14.70;93.50;;;;;;939411;149;27314;-81
2023/04/01 10:04:20;;;;;;;0.75;0.75;;;14.80;93.50;;;;;;940958;149;27341;-83
2023/04/01 10:07:05;;;;;;;0.42;0.42;;;14.80;93.60;;;;;;905161;154;27447;-81
2023/04/01 10:09:52;;;;;;;0.60;0.60;;;14.80;93.70;;;;;;905565;153;27381;-81
2023/04/01 10:12:56;;;;;;;0.50;0.50;;;14.80;93.80;;;;;;931893;148;27430;-81
2023/04/01 10:15:29;;;;;;;0.37;0.33;;;14.80;94.10;;;;;;939707;149;27400;-80
2023/04/01 10:17:57;;;;;;;1.45;0.95;;;14.90;94.40;;;;;;938949;149;27350;-81
2023/04/01 10:20:23;;;;;;;0.40;0.40;;;14.90;94.30;;;;;;940165;149;27351;-81
2023/04/01 10:23:02;;;;;;;0.60;0.50;;;15.00;94.90;;;;;;944098;148;27336;-80
2023/04/01 10:25:28;;;;;;;1.40;0.45;;;15.00;95.00;;;;;;943243;148;27456;-80
2023/04/01 10:28:10;;;;;;;0.70;0.60;;;15.10;94.90;;;;;;924291;150;27401;-81
2023/04/01 10:31:10;;;;;;;1.12;1.00;;;15.20;94.60;;;;;;943698;148;27337;-81
2023/04/01 10:33:55;;;;;;;0.40;0.40;;;15.20;94.60;;;;;;904184;153;27473;-80
2023/04/01 10:36:36;;;;;;;0.72;0.70;;;15.30;94.20;;;;;;920693;150;27388;-81
2023/04/01 10:39:17;;;;;;;0.65;0.60;;;15.30;94.10;;;;;;939390;148;27427;-81
2023/04/01 10:42:11;;;;;;;0.80;0.80;;;15.30;94.20;;;;;;926256;150;27340;-82
2023/04/01 10:44:59;;;;;;;0.40;0.40;;;15.30;94.40;;;;;;943042;148;27278;-82
2023/04/01 10:47:31;;;;;;;1.75;0.80;;;15.30;94.00;;;;;;941235;149;27287;-81
2023/04/01 10:50:19;;;;;;;2.15;0.75;;;15.30;93.90;;;;;;940215;149;27437;-81
2023/04/01 10:53:04;;;;;;;0.85;0.50;;;15.30;93.90;;;;;;923172;149;27347;-81
2023/04/01 10:55:45;;;;;;;0.70;0.50;;;15.20;93.80;;;;;;922149;149;27442;-82
2023/04/01 10:58:30;;;;;;;0.50;0.50;;;15.20;93.90;;;;;;939989;149;27530;-81
2023/04/01 11:01:18;;;;;;;0.75;0.42;;;15.20;94.00;;;;;;938401;149;27364;-81
2023/04/01 11:04:21;;;;;;;0.53;0.50;;;15.10;94.30;;;;;;943753;148;27450;-81
2023/04/01 11:07:12;;;;;;;0.55;0.55;;;15.10;94.70;;;;;;943763;148;27350;-81
2023/04/01 11:10:03;;;;;;;1.17;1.07;;;15.10;95.20;;;;;;944845;148;27380;-81
2023/04/01 11:12:32;;;;;;;0.62;0.62;;;15.10;95.40;;;;;;942654;147;27330;-81
2023/04/01 11:15:14;;;;;;;0.35;0.35;;;15.20;95.70;;;;;;941540;149;27333;-81
2023/04/01 11:17:55;;;;;;;0.60;0.60;;;15.20;95.90;;;;;;939022;149;27353;-81
2023/04/01 11:20:40;;;;;;;0.82;0.72;;;15.30;95.80;;;;;;940980;149;27418;-81
2023/04/01 11:23:19;;;;;;;0.62;0.62;;;15.30;95.90;;;;;;940353;149;27279;-82
2023/04/01 11:26:00;;;;;;;0.55;0.55;;;15.40;95.80;;;;;;937640;149;27379;-80
2023/04/01 11:28:39;;;;;;;0.60;0.60;;;15.40;95.80;;;;;;940781;149;27306;-82
2023/04/01 11:31:36;;;;;;;0.40;0.40;;;15.40;95.60;;;;;;940076;149;27491;-80
2023/04/01 11:34:40;;;;;;;0.45;0.45;;;15.40;95.70;;;;;;929561;151;27404;-81
2023/04/01 11:37:22;;;;;;;0.45;0.40;;;15.40;95.70;;;;;;929415;154;27345;-81
2023/04/01 11:40:23;;;;;;;0.72;0.37;;;15.40;95.70;;;;;;927752;154;27368;-82
2023/04/01 11:43:12;;;;;;;0.53;0.20;;;15.40;95.80;;;;;;910102;154;27461;-82
2023/04/01 11:45:41;;;;;;;1.20;0.40;;;15.50;96.20;;;;;;918070;149;27809;-82
2023/04/01 11:48:10;;;;;;;0.20;0.20;;;15.50;96.30;;;;;;944088;148;27657;-81
2023/04/01 11:50:46;;;;;;;0.40;0.40;;;15.60;96.50;;;;;;944489;148;27345;-81
2023/04/01 11:53:21;;;;;;;0.30;0.30;;;15.70;96.70;;;;;;939477;150;27927;-81
2023/04/01 11:56:00;;;;;;;1.10;0.40;;;15.70;96.60;;;;;;940669;152;27255;-82
2023/04/01 11:58:51;;;;;;;1.20;0.20;;;15.80;96.40;;;;;;941919;151;27377;-81
2023/04/01 12:01:29;;;;;;;0.85;0.53;;;15.90;96.20;;;;;;928589;154;27381;-81
2023/04/01 12:04:14;;;;;;;0.40;0.40;;;16.00;96.00;;;;;;928347;154;27290;-81
2023/04/01 12:06:44;;;;;;;0.40;0.30;;;16.10;95.80;;;;;;928622;153;27362;-81
2023/04/01 12:09:14;;;;;;;0.20;0.20;;;16.20;95.40;;;;;;927082;153;27358;-81
2023/04/01 12:11:45;;;;;;;0.30;0.30;;;16.20;94.90;;;;;;943761;151;27445;-81
2023/04/01 12:14:12;;;;;;;0.60;0.10;;;16.30;94.50;;;;;;945396;148;27261;-82
2023/04/01 12:17:15;;;;;;;0.28;0.20;;;16.30;94.20;;;;;;922226;154;27335;-82
2023/04/01 12:19:42;;;;;;;0.25;0.20;;;16.30;94.10;;;;;;930325;152;27361;-81
2023/04/01 12:22:23;;;;;;;0.20;0.20;;;16.30;94.10;;;;;;928657;154;27350;-82
2023/04/01 12:24:50;;;;;;;0.17;0.17;;;16.30;94.10;;;;;;928749;153;27373;-81
2023/04/01 12:27:41;;;;;;;0.10;0.10;;;16.30;93.90;;;;;;928585;153;27355;-81
2023/04/01 12:30:11;;;;;;;0.10;0.10;;;16.30;93.90;;;;;;945026;150;27352;-81
2023/04/01 12:32:46;;;;;;;0.40;0.40;;;16.30;93.60;;;;;;929330;151;27436;-81
2023/04/01 12:35:34;;;;;;;0.20;0.20;;;16.30;93.70;;;;;;942856;148;27270;-81
2023/04/01 12:38:38;;;;;;;0.10;0.10;;;16.30;94.10;;;;;;940176;149;27325;-81
2023/04/01 12:41:07;;;;;;;0.15;0.15;;;16.30;94.30;;;;;;940314;149;27850;-82
2023/04/01 12:43:34;;;;;;;0.10;0.10;;;16.30;94.20;;;;;;940440;149;27366;-81
2023/04/01 12:46:32;;;;;;;0.28;0.20;;;16.30;94.20;;;;;;936119;149;27799;-82
2023/04/01 12:49:12;;;;;;;0.33;0.30;;;16.30;94.20;;;;;;940212;149;27404;-81
2023/04/01 12:51:51;;;;;;;0.20;0.20;;;16.40;93.90;;;;;;937975;149;27267;-81
2023/04/01 12:54:51;;;;;;;0.28;0.28;;;16.40;93.60;;;;;;924484;149;27805;-82
2023/04/01 12:57:54;;;;;;;0.55;0.20;;;16.40;93.60;;;;;;940886;149;27377;-80
2023/04/01 13:00:39;;;;;;;0.60;0.28;;;16.40;93.60;;;;;;940161;149;27458;-82
2023/04/01 13:03:17;;;;;;;0.30;0.30;;;16.30;93.50;;;;;;941637;148;27465;-81
2023/04/01 13:06:05;;;;;;;0.10;0.10;;;16.30;93.30;;;;;;942955;148;27414;-81
2023/04/01 13:09:00;;;;;;;0.30;0.30;;;16.30;93.20;;;;;;938550;149;27397;-81
2023/04/01 13:11:38;;;;;;;0.23;0.20;;;16.30;93.20;;;;;;939651;149;27446;-81
2023/04/01 13:14:36;;;;;;;0.80;0.60;;;16.30;93.40;;;;;;939538;149;27383;-80
2023/04/01 13:17:08;;;;;;;1.22;0.65;;;16.20;93.60;;;;;;940672;149;27345;-81
2023/04/01 13:19:37;;;;;;;0.30;0.30;;;16.10;93.70;;;;;;938775;149;27410;-81
2023/04/01 13:22:25;;;;;;;0.62;0.62;;;16.10;93.70;;;;;;935595;149;27453;-81